sensor_id;sensor_type;location;lat;lon;timestamp;temperature;humidity
1476;DHT22;730;48.870;12.542;2023-10-13T00:01:05;17.30;1.00
1476;DHT22;730;48.870;12.542;2023-10-13T00:03:32;17.30;1.00
1476;DHT22;730;48.870;12.542;2023-10-13T00:05:59;17.20;1.00
1476;DHT22;730;48.870;12.542;2023-10-13T00:08:29;17.20;1.00
1476;DHT22;730;48.870;12.542;2023-10-13T00:10:56;17.20;1.00
1476;DHT22;730;48.870;12.542;2023-10-13T00:13:29;17.20;1.00
1476;DHT22;730;48.870;12.542;2023-10-13T00:15:59;17.10;1.00
1476;DHT22;730;48.870;12.542;2023-10-13T00:18:28;17.10;1.00
1476;DHT22;730;48.870;12.542;2023-10-13T00:21:01;17.00;1.00
1476;DHT22;730;48.870;12.542;2023-10-13T00:23:39;17.00;1.00
1476;DHT22;730;48.870;12.542;2023-10-13T00:26:05;17.00;1.00
1476;DHT22;730;48.870;12.542;2023-10-13T00:28:35;16.90;1.00
1476;DHT22;730;48.870;12.542;2023-10-13T00:31:01;16.90;1.00
1476;DHT22;730;48.870;12.542;2023-10-13T00:33:39;16.90;1.00
1476;DHT22;730;48.870;12.542;2023-10-13T00:36:08;16.90;1.00
1476;DHT22;730;48.870;12.542;2023-10-13T00:38:36;16.80;1.00
1476;DHT22;730;48.870;12.542;2023-10-13T00:41:03;16.80;1.00
1476;DHT22;730;48.870;12.542;2023-10-13T00:43:52;16.80;1.00
1476;DHT22;730;48.870;12.542;2023-10-13T00:46:32;16.80;1.00
1476;DHT22;730;48.870;12.542;2023-10-13T00:48:59;16.80;1.00
1476;DHT22;730;48.870;12.542;2023-10-13T00:51:26;16.80;1.00
1476;DHT22;730;48.870;12.542;2023-10-13T00:54:02;16.80;1.00
1476;DHT22;730;48.870;12.542;2023-10-13T00:56:33;16.80;1.00
1476;DHT22;730;48.870;12.542;2023-10-13T00:59:00;16.70;1.00
1476;DHT22;730;48.870;12.542;2023-10-13T01:01:29;16.70;1.00
1476;DHT22;730;48.870;12.542;2023-10-13T01:03:59;16.70;1.00
1476;DHT22;730;48.870;12.542;2023-10-13T01:06:31;16.70;1.00
1476;DHT22;730;48.870;12.542;2023-10-13T01:09:01;16.70;1.00
1476;DHT22;730;48.870;12.542;2023-10-13T01:11:39;16.60;1.00
1476;DHT22;730;48.870;12.542;2023-10-13T01:14:05;16.60;1.00
1476;DHT22;730;48.870;12.542;2023-10-13T01:16:40;16.60;1.00
1476;DHT22;730;48.870;12.542;2023-10-13T01:19:13;16.60;1.00
1476;DHT22;730;48.870;12.542;2023-10-13T01:21:40;16.60;1.00
1476;DHT22;730;48.870;12.542;2023-10-13T01:24:13;16.50;1.00
1476;DHT22;730;48.870;12.542;2023-10-13T01:26:44;16.50;1.00
1476;DHT22;730;48.870;12.542;2023-10-13T01:29:10;16.50;1.00
1476;DHT22;730;48.870;12.542;2023-10-13T01:31:43;16.40;1.00
1476;DHT22;730;48.870;12.542;2023-10-13T01:34:17;16.40;1.00
1476;DHT22;730;48.870;12.542;2023-10-13T01:36:54;16.40;1.00
1476;DHT22;730;48.870;12.542;2023-10-13T01:39:24;16.40;1.00
1476;DHT22;730;48.870;12.542;2023-10-13T01:41:55;16.40;1.00
1476;DHT22;730;48.870;12.542;2023-10-13T01:44:24;16.30;1.00
1476;DHT22;730;48.870;12.542;2023-10-13T01:46:52;16.30;1.00
1476;DHT22;730;48.870;12.542;2023-10-13T01:49:18;16.30;1.00
1476;DHT22;730;48.870;12.542;2023-10-13T01:51:44;16.20;1.00
1476;DHT22;730;48.870;12.542;2023-10-13T01:54:14;16.20;1.00
1476;DHT22;730;48.870;12.542;2023-10-13T01:56:41;16.20;1.00
1476;DHT22;730;48.870;12.542;2023-10-13T01:59:14;16.20;1.00
1476;DHT22;730;48.870;12.542;2023-10-13T02:01:41;16.20;1.00
1476;DHT22;730;48.870;12.542;2023-10-13T02:04:08;16.10;1.00
1476;DHT22;730;48.870;12.542;2023-10-13T02:06:37;16.10;1.00
1476;DHT22;730;48.870;12.542;2023-10-13T02:09:07;16.10;1.00
1476;DHT22;730;48.870;12.542;2023-10-13T02:11:39;16.10;1.00
1476;DHT22;730;48.870;12.542;2023-10-13T02:14:06;16.00;1.00
1476;DHT22;730;48.870;12.542;2023-10-13T02:16:32;16.00;1.00
1476;DHT22;730;48.870;12.542;2023-10-13T02:18:58;16.00;1.00
1476;DHT22;730;48.870;12.542;2023-10-13T02:21:31;16.00;1.00
1476;DHT22;730;48.870;12.542;2023-10-13T02:23:58;15.90;1.00
1476;DHT22;730;48.870;12.542;2023-10-13T02:26:32;15.90;1.00
1476;DHT22;730;48.870;12.542;2023-10-13T02:29:04;15.80;1.00
1476;DHT22;730;48.870;12.542;2023-10-13T02:31:37;15.80;1.00
1476;DHT22;730;48.870;12.542;2023-10-13T02:34:04;15.70;1.00
1476;DHT22;730;48.870;12.542;2023-10-13T02:36:37;15.70;1.00
1476;DHT22;730;48.870;12.542;2023-10-13T02:39:12;15.70;1.00
1476;DHT22;730;48.870;12.542;2023-10-13T02:41:40;15.60;1.00
1476;DHT22;730;48.870;12.542;2023-10-13T02:44:07;15.60;1.00
1476;DHT22;730;48.870;12.542;2023-10-13T02:46:34;15.60;1.00
1476;DHT22;730;48.870;12.542;2023-10-13T02:49:05;15.60;1.00
1476;DHT22;730;48.870;12.542;2023-10-13T02:51:39;15.60;1.00
1476;DHT22;730;48.870;12.542;2023-10-13T02:54:07;15.60;1.00
1476;DHT22;730;48.870;12.542;2023-10-13T02:56:38;15.60;1.00
1476;DHT22;730;48.870;12.542;2023-10-13T02:59:14;15.60;1.00
1476;DHT22;730;48.870;12.542;2023-10-13T03:01:40;15.60;1.00
1476;DHT22;730;48.870;12.542;2023-10-13T03:04:07;15.60;1.00
1476;DHT22;730;48.870;12.542;2023-10-13T03:06:35;15.50;1.00
1476;DHT22;730;48.870;12.542;2023-10-13T03:09:04;15.50;1.00
1476;DHT22;730;48.870;12.542;2023-10-13T03:11:50;15.50;1.00
1476;DHT22;730;48.870;12.542;2023-10-13T03:14:21;15.50;1.00
1476;DHT22;730;48.870;12.542;2023-10-13T03:16:56;15.50;1.00
1476;DHT22;730;48.870;12.542;2023-10-13T03:19:31;15.50;1.00
1476;DHT22;730;48.870;12.542;2023-10-13T03:22:05;15.50;1.00
1476;DHT22;730;48.870;12.542;2023-10-13T03:24:37;15.40;1.00
1476;DHT22;730;48.870;12.542;2023-10-13T03:27:07;15.40;1.00
1476;DHT22;730;48.870;12.542;2023-10-13T03:29:44;15.40;1.00
1476;DHT22;730;48.870;12.542;2023-10-13T03:32:14;15.40;1.00
1476;DHT22;730;48.870;12.542;2023-10-13T03:34:42;15.40;1.00
1476;DHT22;730;48.870;12.542;2023-10-13T03:37:31;15.40;1.00
1476;DHT22;730;48.870;12.542;2023-10-13T03:43:00;15.40;1.00
1476;DHT22;730;48.870;12.542;2023-10-13T03:45:40;15.30;1.00
1476;DHT22;730;48.870;12.542;2023-10-13T03:48:10;15.30;1.00
1476;DHT22;730;48.870;12.542;2023-10-13T03:50:55;15.20;1.00
1476;DHT22;730;48.870;12.542;2023-10-13T03:53:37;15.20;1.00
1476;DHT22;730;48.870;12.542;2023-10-13T03:56:19;15.20;1.00
1476;DHT22;730;48.870;12.542;2023-10-13T03:59:05;15.20;1.00
1476;DHT22;730;48.870;12.542;2023-10-13T04:01:33;15.20;1.00
1476;DHT22;730;48.870;12.542;2023-10-13T04:04:18;15.20;1.00
1476;DHT22;730;48.870;12.542;2023-10-13T04:07:01;15.20;1.00
1476;DHT22;730;48.870;12.542;2023-10-13T04:09:31;15.20;1.00
1476;DHT22;730;48.870;12.542;2023-10-13T04:12:04;15.10;1.00
1476;DHT22;730;48.870;12.542;2023-10-13T04:14:41;15.20;1.00
1476;DHT22;730;48.870;12.542;2023-10-13T04:17:25;15.20;1.00
1476;DHT22;730;48.870;12.542;2023-10-13T04:19:55;15.20;1.00
1476;DHT22;730;48.870;12.542;2023-10-13T04:22:36;15.20;1.00
1476;DHT22;730;48.870;12.542;2023-10-13T04:25:22;15.20;1.00
1476;DHT22;730;48.870;12.542;2023-10-13T04:28:11;15.30;1.00
1476;DHT22;730;48.870;12.542;2023-10-13T04:30:39;15.30;1.00
1476;DHT22;730;48.870;12.542;2023-10-13T04:33:28;15.30;1.00
1476;DHT22;730;48.870;12.542;2023-10-13T04:36:08;15.30;1.00
1476;DHT22;730;48.870;12.542;2023-10-13T04:39:00;15.30;1.00
1476;DHT22;730;48.870;12.542;2023-10-13T04:41:35;15.30;1.00
1476;DHT22;730;48.870;12.542;2023-10-13T04:44:09;15.30;1.00
1476;DHT22;730;48.870;12.542;2023-10-13T04:46:54;15.30;1.00
1476;DHT22;730;48.870;12.542;2023-10-13T04:49:38;15.30;1.00
1476;DHT22;730;48.870;12.542;2023-10-13T04:52:13;15.30;1.00
1476;DHT22;730;48.870;12.542;2023-10-13T04:54:52;15.40;1.00
1476;DHT22;730;48.870;12.542;2023-10-13T04:57:25;15.40;1.00
1476;DHT22;730;48.870;12.542;2023-10-13T05:00:02;15.50;1.00
1476;DHT22;730;48.870;12.542;2023-10-13T05:02:38;15.50;1.00
1476;DHT22;730;48.870;12.542;2023-10-13T05:05:10;15.50;1.00
1476;DHT22;730;48.870;12.542;2023-10-13T05:07:51;15.50;1.00
1476;DHT22;730;48.870;12.542;2023-10-13T05:10:37;15.60;1.00
1476;DHT22;730;48.870;12.542;2023-10-13T05:13:22;15.60;1.00
1476;DHT22;730;48.870;12.542;2023-10-13T05:16:06;15.60;1.00
1476;DHT22;730;48.870;12.542;2023-10-13T05:18:51;15.60;1.00
1476;DHT22;730;48.870;12.542;2023-10-13T05:21:36;15.60;1.00
1476;DHT22;730;48.870;12.542;2023-10-13T05:24:21;15.60;1.00
1476;DHT22;730;48.870;12.542;2023-10-13T05:27:05;15.60;1.00
1476;DHT22;730;48.870;12.542;2023-10-13T05:29:50;15.60;1.00
1476;DHT22;730;48.870;12.542;2023-10-13T05:32:35;15.60;1.00
1476;DHT22;730;48.870;12.542;2023-10-13T05:35:21;15.60;1.00
1476;DHT22;730;48.870;12.542;2023-10-13T05:38:05;15.60;1.00
1476;DHT22;730;48.870;12.542;2023-10-13T05:43:38;15.70;1.00
1476;DHT22;730;48.870;12.542;2023-10-13T05:46:23;15.60;1.00
1476;DHT22;730;48.870;12.542;2023-10-13T05:48:53;15.70;1.00
1476;DHT22;730;48.870;12.542;2023-10-13T05:51:29;15.70;1.00
1476;DHT22;730;48.870;12.542;2023-10-13T05:54:18;15.70;1.00
1476;DHT22;730;48.870;12.542;2023-10-13T05:56:48;15.70;1.00
1476;DHT22;730;48.870;12.542;2023-10-13T05:59:38;15.70;1.00
1476;DHT22;730;48.870;12.542;2023-10-13T06:02:23;15.70;1.00
1476;DHT22;730;48.870;12.542;2023-10-13T06:05:09;15.70;1.00
1476;DHT22;730;48.870;12.542;2023-10-13T06:07:55;15.80;1.00
1476;DHT22;730;48.870;12.542;2023-10-13T06:10:40;15.80;1.00
1476;DHT22;730;48.870;12.542;2023-10-13T06:13:25;15.80;1.00
1476;DHT22;730;48.870;12.542;2023-10-13T06:16:12;15.90;1.00
1476;DHT22;730;48.870;12.542;2023-10-13T06:19:00;15.90;1.00
1476;DHT22;730;48.870;12.542;2023-10-13T06:21:45;16.00;1.00
1476;DHT22;730;48.870;12.542;2023-10-13T06:24:31;16.00;1.00
1476;DHT22;730;48.870;12.542;2023-10-13T06:27:16;16.10;1.00
1476;DHT22;730;48.870;12.542;2023-10-13T06:30:02;16.10;1.00
1476;DHT22;730;48.870;12.542;2023-10-13T06:32:30;16.20;1.00
1476;DHT22;730;48.870;12.542;2023-10-13T06:34:57;16.20;1.00
1476;DHT22;730;48.870;12.542;2023-10-13T06:37:24;16.20;1.00
1476;DHT22;730;48.870;12.542;2023-10-13T06:40:03;16.30;1.00
1476;DHT22;730;48.870;12.542;2023-10-13T06:42:48;16.30;1.00
1476;DHT22;730;48.870;12.542;2023-10-13T06:45:15;16.40;1.00
1476;DHT22;730;48.870;12.542;2023-10-13T06:47:43;16.50;1.00
1476;DHT22;730;48.870;12.542;2023-10-13T06:50:13;16.60;1.00
1476;DHT22;730;48.870;12.542;2023-10-13T06:52:45;16.70;1.00
1476;DHT22;730;48.870;12.542;2023-10-13T06:55:15;16.80;1.00
1476;DHT22;730;48.870;12.542;2023-10-13T06:57:50;17.00;1.00
1476;DHT22;730;48.870;12.542;2023-10-13T07:00:17;17.30;1.00
1476;DHT22;730;48.870;12.542;2023-10-13T07:02:56;17.50;1.00
1476;DHT22;730;48.870;12.542;2023-10-13T07:05:39;17.80;1.00
1476;DHT22;730;48.870;12.542;2023-10-13T07:08:08;18.00;1.00
1476;DHT22;730;48.870;12.542;2023-10-13T07:10:35;18.30;1.00
1476;DHT22;730;48.870;12.542;2023-10-13T07:13:19;18.40;1.00
1476;DHT22;730;48.870;12.542;2023-10-13T07:15:46;18.70;1.00
1476;DHT22;730;48.870;12.542;2023-10-13T07:18:15;18.80;1.00
1476;DHT22;730;48.870;12.542;2023-10-13T07:20:48;19.10;1.00
1476;DHT22;730;48.870;12.542;2023-10-13T07:23:14;19.30;1.00
1476;DHT22;730;48.870;12.542;2023-10-13T07:25:54;19.40;1.00
1476;DHT22;730;48.870;12.542;2023-10-13T07:28:21;19.70;1.00
1476;DHT22;730;48.870;12.542;2023-10-13T07:30:47;19.90;1.00
1476;DHT22;730;48.870;12.542;2023-10-13T07:33:34;20.00;1.00
1476;DHT22;730;48.870;12.542;2023-10-13T07:36:02;20.20;1.00
1476;DHT22;730;48.870;12.542;2023-10-13T07:38:37;20.40;1.00
1476;DHT22;730;48.870;12.542;2023-10-13T07:41:04;20.60;1.00
1476;DHT22;730;48.870;12.542;2023-10-13T07:43:35;20.70;1.00
1476;DHT22;730;48.870;12.542;2023-10-13T07:46:03;21.00;1.00
1476;DHT22;730;48.870;12.542;2023-10-13T07:48:39;21.20;1.00
1476;DHT22;730;48.870;12.542;2023-10-13T07:51:11;21.40;1.00
1476;DHT22;730;48.870;12.542;2023-10-13T07:53:45;21.60;1.00
1476;DHT22;730;48.870;12.542;2023-10-13T07:56:15;21.80;1.00
1476;DHT22;730;48.870;12.542;2023-10-13T07:58:45;22.00;1.00
1476;DHT22;730;48.870;12.542;2023-10-13T08:01:26;22.10;1.00
1476;DHT22;730;48.870;12.542;2023-10-13T08:03:53;22.20;1.00
1476;DHT22;730;48.870;12.542;2023-10-13T08:06:48;22.20;1.00
1476;DHT22;730;48.870;12.542;2023-10-13T08:09:14;22.10;1.00
1476;DHT22;730;48.870;12.542;2023-10-13T08:12:07;22.10;1.00
1476;DHT22;730;48.870;12.542;2023-10-13T08:14:38;22.20;1.00
1476;DHT22;730;48.870;12.542;2023-10-13T08:17:09;22.20;1.00
1476;DHT22;730;48.870;12.542;2023-10-13T08:19:37;22.30;1.00
1476;DHT22;730;48.870;12.542;2023-10-13T08:22:09;22.40;1.00
1476;DHT22;730;48.870;12.542;2023-10-13T08:24:40;22.50;1.00
1476;DHT22;730;48.870;12.542;2023-10-13T08:27:07;22.60;1.00
1476;DHT22;730;48.870;12.542;2023-10-13T08:29:52;22.70;1.00
1476;DHT22;730;48.870;12.542;2023-10-13T08:32:25;22.90;1.00
1476;DHT22;730;48.870;12.542;2023-10-13T08:34:51;23.10;1.00
1476;DHT22;730;48.870;12.542;2023-10-13T08:37:21;23.30;1.00
1476;DHT22;730;48.870;12.542;2023-10-13T08:39:57;23.40;1.00
1476;DHT22;730;48.870;12.542;2023-10-13T08:42:34;23.60;1.00
1476;DHT22;730;48.870;12.542;2023-10-13T08:47:54;23.90;1.00
1476;DHT22;730;48.870;12.542;2023-10-13T08:50:35;24.10;1.00
1476;DHT22;730;48.870;12.542;2023-10-13T08:53:25;24.20;1.00
1476;DHT22;730;48.870;12.542;2023-10-13T08:56:04;24.20;1.00
1476;DHT22;730;48.870;12.542;2023-10-13T08:58:35;24.30;1.00
1476;DHT22;730;48.870;12.542;2023-10-13T09:04:08;24.60;1.00
1476;DHT22;730;48.870;12.542;2023-10-13T09:06:57;24.70;1.00
1476;DHT22;730;48.870;12.542;2023-10-13T09:12:15;25.00;1.00
1476;DHT22;730;48.870;12.542;2023-10-13T09:14:52;25.20;1.00
1476;DHT22;730;48.870;12.542;2023-10-13T09:17:29;25.40;1.00
1476;DHT22;730;48.870;12.542;2023-10-13T09:20:06;25.60;1.00
1476;DHT22;730;48.870;12.542;2023-10-13T09:22:55;25.70;1.00
1476;DHT22;730;48.870;12.542;2023-10-13T09:25:35;25.90;1.00
1476;DHT22;730;48.870;12.542;2023-10-13T09:28:03;26.00;1.00
1476;DHT22;730;48.870;12.542;2023-10-13T09:30:45;26.00;1.00
1476;DHT22;730;48.870;12.542;2023-10-13T09:33:12;26.10;1.00
1476;DHT22;730;48.870;12.542;2023-10-13T09:35:46;26.10;1.00
1476;DHT22;730;48.870;12.542;2023-10-13T09:38:16;26.10;1.00
1476;DHT22;730;48.870;12.542;2023-10-13T09:40:43;26.10;1.00
1476;DHT22;730;48.870;12.542;2023-10-13T09:43:17;26.10;1.00
1476;DHT22;730;48.870;12.542;2023-10-13T09:45:48;26.10;1.00
1476;DHT22;730;48.870;12.542;2023-10-13T09:48:34;26.20;1.00
1476;DHT22;730;48.870;12.542;2023-10-13T09:51:05;26.30;1.00
1476;DHT22;730;48.870;12.542;2023-10-13T09:53:34;26.40;1.00
1476;DHT22;730;48.870;12.542;2023-10-13T09:56:11;26.50;1.00
1476;DHT22;730;48.870;12.542;2023-10-13T09:58:48;26.50;1.00
1476;DHT22;730;48.870;12.542;2023-10-13T10:01:22;26.50;1.00
1476;DHT22;730;48.870;12.542;2023-10-13T10:04:10;26.50;1.00
1476;DHT22;730;48.870;12.542;2023-10-13T10:06:54;26.70;1.00
1476;DHT22;730;48.870;12.542;2023-10-13T10:09:27;26.70;1.00
1476;DHT22;730;48.870;12.542;2023-10-13T10:12:23;26.80;1.00
1476;DHT22;730;48.870;12.542;2023-10-13T10:14:59;26.90;1.00
1476;DHT22;730;48.870;12.542;2023-10-13T10:17:29;26.90;1.00
1476;DHT22;730;48.870;12.542;2023-10-13T10:19:57;27.00;1.00
1476;DHT22;730;48.870;12.542;2023-10-13T10:22:30;27.10;1.00
1476;DHT22;730;48.870;12.542;2023-10-13T10:25:00;27.10;1.00
1476;DHT22;730;48.870;12.542;2023-10-13T10:27:32;27.20;1.00
1476;DHT22;730;48.870;12.542;2023-10-13T10:29:59;27.10;1.00
1476;DHT22;730;48.870;12.542;2023-10-13T10:32:37;27.20;1.00
1476;DHT22;730;48.870;12.542;2023-10-13T10:35:08;27.20;1.00
1476;DHT22;730;48.870;12.542;2023-10-13T10:37:36;27.30;1.00
1476;DHT22;730;48.870;12.542;2023-10-13T10:40:07;27.30;1.00
1476;DHT22;730;48.870;12.542;2023-10-13T10:42:34;27.40;1.00
1476;DHT22;730;48.870;12.542;2023-10-13T10:45:00;27.40;1.00
1476;DHT22;730;48.870;12.542;2023-10-13T10:47:34;27.40;1.00
1476;DHT22;730;48.870;12.542;2023-10-13T10:50:04;27.50;1.00
1476;DHT22;730;48.870;12.542;2023-10-13T10:52:34;27.50;1.00
1476;DHT22;730;48.870;12.542;2023-10-13T10:55:05;27.60;1.00
1476;DHT22;730;48.870;12.542;2023-10-13T10:57:36;27.60;1.00
1476;DHT22;730;48.870;12.542;2023-10-13T11:00:27;27.70;1.00
1476;DHT22;730;48.870;12.542;2023-10-13T11:03:07;27.60;1.00
1476;DHT22;730;48.870;12.542;2023-10-13T11:05:46;27.60;1.00
1476;DHT22;730;48.870;12.542;2023-10-13T11:08:25;27.60;1.00
1476;DHT22;730;48.870;12.542;2023-10-13T11:11:03;27.60;1.00
1476;DHT22;730;48.870;12.542;2023-10-13T11:13:44;27.70;1.00
1476;DHT22;730;48.870;12.542;2023-10-13T11:16:23;27.70;1.00
1476;DHT22;730;48.870;12.542;2023-10-13T11:19:03;27.80;1.00
1476;DHT22;730;48.870;12.542;2023-10-13T11:21:31;27.80;1.00
1476;DHT22;730;48.870;12.542;2023-10-13T11:23:57;27.70;1.00
1476;DHT22;730;48.870;12.542;2023-10-13T11:26:35;27.70;1.00
1476;DHT22;730;48.870;12.542;2023-10-13T11:29:16;27.80;1.00
1476;DHT22;730;48.870;12.542;2023-10-13T11:31:48;27.90;1.00
1476;DHT22;730;48.870;12.542;2023-10-13T11:34:34;28.00;1.00
1476;DHT22;730;48.870;12.542;2023-10-13T11:37:06;28.10;1.00
1476;DHT22;730;48.870;12.542;2023-10-13T11:39:51;28.30;1.00
1476;DHT22;730;48.870;12.542;2023-10-13T11:42:17;28.40;1.00
1476;DHT22;730;48.870;12.542;2023-10-13T11:44:43;28.60;1.00
1476;DHT22;730;48.870;12.542;2023-10-13T11:47:10;28.60;1.00
1476;DHT22;730;48.870;12.542;2023-10-13T11:50:02;28.70;1.00
1476;DHT22;730;48.870;12.542;2023-10-13T11:52:31;28.90;1.00
1476;DHT22;730;48.870;12.542;2023-10-13T11:54:57;28.90;1.00
1476;DHT22;730;48.870;12.542;2023-10-13T11:57:23;29.00;1.00
1476;DHT22;730;48.870;12.542;2023-10-13T11:59:50;29.20;1.00
1476;DHT22;730;48.870;12.542;2023-10-13T12:02:20;29.20;1.00
1476;DHT22;730;48.870;12.542;2023-10-13T12:04:52;29.30;1.00
1476;DHT22;730;48.870;12.542;2023-10-13T12:07:21;29.30;1.00
1476;DHT22;730;48.870;12.542;2023-10-13T12:09:53;29.30;1.00
1476;DHT22;730;48.870;12.542;2023-10-13T12:14:48;29.20;1.00
1476;DHT22;730;48.870;12.542;2023-10-13T12:17:27;29.20;1.00
1476;DHT22;730;48.870;12.542;2023-10-13T12:20:01;29.10;1.00
1476;DHT22;730;48.870;12.542;2023-10-13T12:22:32;29.10;1.00
1476;DHT22;730;48.870;12.542;2023-10-13T12:25:17;29.10;1.00
1476;DHT22;730;48.870;12.542;2023-10-13T12:27:58;29.20;1.00
1476;DHT22;730;48.870;12.542;2023-10-13T12:30:39;29.20;1.00
1476;DHT22;730;48.870;12.542;2023-10-13T12:33:20;29.20;1.00
1476;DHT22;730;48.870;12.542;2023-10-13T12:36:01;29.30;1.00
1476;DHT22;730;48.870;12.542;2023-10-13T12:38:36;29.30;1.00
1476;DHT22;730;48.870;12.542;2023-10-13T12:41:05;29.40;1.00
1476;DHT22;730;48.870;12.542;2023-10-13T12:43:50;29.50;1.00
1476;DHT22;730;48.870;12.542;2023-10-13T12:46:35;29.50;1.00
1476;DHT22;730;48.870;12.542;2023-10-13T12:49:34;29.50;1.00
1476;DHT22;730;48.870;12.542;2023-10-13T12:52:06;29.60;1.00
1476;DHT22;730;48.870;12.542;2023-10-13T12:54:51;29.70;1.00
1476;DHT22;730;48.870;12.542;2023-10-13T12:57:40;29.80;1.00
1476;DHT22;730;48.870;12.542;2023-10-13T13:00:10;29.90;1.00
1476;DHT22;730;48.870;12.542;2023-10-13T13:02:47;30.00;1.00
1476;DHT22;730;48.870;12.542;2023-10-13T13:05:16;30.10;1.00
1476;DHT22;730;48.870;12.542;2023-10-13T13:07:42;30.20;1.00
1476;DHT22;730;48.870;12.542;2023-10-13T13:10:18;30.40;1.00
1476;DHT22;730;48.870;12.542;2023-10-13T13:12:44;30.50;1.00
1476;DHT22;730;48.870;12.542;2023-10-13T13:15:10;30.60;1.00
1476;DHT22;730;48.870;12.542;2023-10-13T13:17:38;30.60;1.00
1476;DHT22;730;48.870;12.542;2023-10-13T13:20:06;30.70;1.00
1476;DHT22;730;48.870;12.542;2023-10-13T13:22:38;30.70;1.00
1476;DHT22;730;48.870;12.542;2023-10-13T13:25:04;30.80;1.00
1476;DHT22;730;48.870;12.542;2023-10-13T13:27:36;30.90;1.00
1476;DHT22;730;48.870;12.542;2023-10-13T13:30:03;31.10;1.00
1476;DHT22;730;48.870;12.542;2023-10-13T13:32:39;31.20;1.00
1476;DHT22;730;48.870;12.542;2023-10-13T13:35:07;31.30;1.00
1476;DHT22;730;48.870;12.542;2023-10-13T13:37:34;31.40;1.00
1476;DHT22;730;48.870;12.542;2023-10-13T13:40:06;31.50;1.00
1476;DHT22;730;48.870;12.542;2023-10-13T13:42:42;31.60;1.00
1476;DHT22;730;48.870;12.542;2023-10-13T13:45:15;31.70;1.00
1476;DHT22;730;48.870;12.542;2023-10-13T13:47:51;31.80;1.00
1476;DHT22;730;48.870;12.542;2023-10-13T13:50:21;32.10;1.00
1476;DHT22;730;48.870;12.542;2023-10-13T13:52:52;32.40;1.00
1476;DHT22;730;48.870;12.542;2023-10-13T13:55:19;32.80;1.00
1476;DHT22;730;48.870;12.542;2023-10-13T13:57:45;33.20;1.00
1476;DHT22;730;48.870;12.542;2023-10-13T14:00:13;33.50;1.00
1476;DHT22;730;48.870;12.542;2023-10-13T14:02:43;34.00;1.00
1476;DHT22;730;48.870;12.542;2023-10-13T14:05:14;34.70;1.00
1476;DHT22;730;48.870;12.542;2023-10-13T14:07:44;35.60;1.00
1476;DHT22;730;48.870;12.542;2023-10-13T14:10:19;36.40;1.00
1476;DHT22;730;48.870;12.542;2023-10-13T14:13:19;37.40;1.00
1476;DHT22;730;48.870;12.542;2023-10-13T14:15:48;38.70;1.00
1476;DHT22;730;48.870;12.542;2023-10-13T14:18:14;40.00;1.00
1476;DHT22;730;48.870;12.542;2023-10-13T14:20:43;41.10;1.00
1476;DHT22;730;48.870;12.542;2023-10-13T14:23:09;42.20;1.00
1476;DHT22;730;48.870;12.542;2023-10-13T14:25:38;42.80;1.00
1476;DHT22;730;48.870;12.542;2023-10-13T14:28:05;43.20;1.00
1476;DHT22;730;48.870;12.542;2023-10-13T14:30:31;43.50;1.00
1476;DHT22;730;48.870;12.542;2023-10-13T14:32:57;43.90;1.00
1476;DHT22;730;48.870;12.542;2023-10-13T14:35:27;44.20;1.00
1476;DHT22;730;48.870;12.542;2023-10-13T14:37:53;44.50;1.00
1476;DHT22;730;48.870;12.542;2023-10-13T14:40:19;44.80;1.00
1476;DHT22;730;48.870;12.542;2023-10-13T14:42:47;45.00;1.00
1476;DHT22;730;48.870;12.542;2023-10-13T14:45:14;45.40;1.00
1476;DHT22;730;48.870;12.542;2023-10-13T14:47:43;45.80;1.00
1476;DHT22;730;48.870;12.542;2023-10-13T14:50:10;45.90;1.00
1476;DHT22;730;48.870;12.542;2023-10-13T14:52:49;46.10;1.00
1476;DHT22;730;48.870;12.542;2023-10-13T14:55:15;46.30;1.00
1476;DHT22;730;48.870;12.542;2023-10-13T14:57:48;46.60;1.00
1476;DHT22;730;48.870;12.542;2023-10-13T15:00:16;46.80;1.00
1476;DHT22;730;48.870;12.542;2023-10-13T15:02:53;46.90;1.00
1476;DHT22;730;48.870;12.542;2023-10-13T15:05:20;47.00;1.00
1476;DHT22;730;48.870;12.542;2023-10-13T15:07:47;47.10;1.00
1476;DHT22;730;48.870;12.542;2023-10-13T15:10:16;47.10;1.00
1476;DHT22;730;48.870;12.542;2023-10-13T15:12:42;47.20;1.00
1476;DHT22;730;48.870;12.542;2023-10-13T15:15:10;47.20;1.00
1476;DHT22;730;48.870;12.542;2023-10-13T15:17:40;47.10;1.00
1476;DHT22;730;48.870;12.542;2023-10-13T15:20:06;47.00;1.00
1476;DHT22;730;48.870;12.542;2023-10-13T15:22:36;46.90;1.00
1476;DHT22;730;48.870;12.542;2023-10-13T15:25:05;46.70;1.00
1476;DHT22;730;48.870;12.542;2023-10-13T15:27:50;46.50;1.00
1476;DHT22;730;48.870;12.542;2023-10-13T15:30:24;46.10;1.00
1476;DHT22;730;48.870;12.542;2023-10-13T15:32:56;45.80;1.00
1476;DHT22;730;48.870;12.542;2023-10-13T15:35:23;45.40;1.00
1476;DHT22;730;48.870;12.542;2023-10-13T15:37:55;45.00;1.00
1476;DHT22;730;48.870;12.542;2023-10-13T15:40:23;44.50;1.00
1476;DHT22;730;48.870;12.542;2023-10-13T15:42:53;44.20;1.00
1476;DHT22;730;48.870;12.542;2023-10-13T15:45:25;43.70;1.00
1476;DHT22;730;48.870;12.542;2023-10-13T15:47:58;43.20;1.00
1476;DHT22;730;48.870;12.542;2023-10-13T15:50:25;42.60;1.00
1476;DHT22;730;48.870;12.542;2023-10-13T15:53:00;42.00;1.00
1476;DHT22;730;48.870;12.542;2023-10-13T15:55:27;41.40;1.00
1476;DHT22;730;48.870;12.542;2023-10-13T15:57:56;40.80;1.00
1476;DHT22;730;48.870;12.542;2023-10-13T16:00:22;40.00;1.00
1476;DHT22;730;48.870;12.542;2023-10-13T16:02:56;39.20;1.00
1476;DHT22;730;48.870;12.542;2023-10-13T16:05:23;38.20;1.00
1476;DHT22;730;48.870;12.542;2023-10-13T16:07:55;37.10;1.00
1476;DHT22;730;48.870;12.542;2023-10-13T16:10:22;36.00;1.00
1476;DHT22;730;48.870;12.542;2023-10-13T16:12:48;34.70;1.00
1476;DHT22;730;48.870;12.542;2023-10-13T16:15:14;33.60;1.00
1476;DHT22;730;48.870;12.542;2023-10-13T16:17:41;32.60;1.00
1476;DHT22;730;48.870;12.542;2023-10-13T16:20:10;31.60;1.00
1476;DHT22;730;48.870;12.542;2023-10-13T16:22:46;30.80;1.00
1476;DHT22;730;48.870;12.542;2023-10-13T16:25:13;30.00;1.00
1476;DHT22;730;48.870;12.542;2023-10-13T16:27:40;29.40;1.00
1476;DHT22;730;48.870;12.542;2023-10-13T16:30:12;28.90;1.00
1476;DHT22;730;48.870;12.542;2023-10-13T16:32:43;28.50;1.00
1476;DHT22;730;48.870;12.542;2023-10-13T16:35:13;28.00;1.00
1476;DHT22;730;48.870;12.542;2023-10-13T16:37:44;27.60;1.00
1476;DHT22;730;48.870;12.542;2023-10-13T16:40:14;27.20;1.00
1476;DHT22;730;48.870;12.542;2023-10-13T16:42:40;26.90;1.00
1476;DHT22;730;48.870;12.542;2023-10-13T16:45:06;26.60;1.00
1476;DHT22;730;48.870;12.542;2023-10-13T16:47:47;26.30;1.00
1476;DHT22;730;48.870;12.542;2023-10-13T16:50:14;26.00;1.00
1476;DHT22;730;48.870;12.542;2023-10-13T16:52:40;25.70;1.00
1476;DHT22;730;48.870;12.542;2023-10-13T16:55:07;25.50;1.00
1476;DHT22;730;48.870;12.542;2023-10-13T16:57:36;25.30;1.00
1476;DHT22;730;48.870;12.542;2023-10-13T17:00:03;25.10;1.00
1476;DHT22;730;48.870;12.542;2023-10-13T17:02:33;25.00;1.00
1476;DHT22;730;48.870;12.542;2023-10-13T17:05:00;24.80;1.00
1476;DHT22;730;48.870;12.542;2023-10-13T17:07:26;24.60;1.00
1476;DHT22;730;48.870;12.542;2023-10-13T17:09:52;24.50;1.00
1476;DHT22;730;48.870;12.542;2023-10-13T17:12:19;24.30;1.00
1476;DHT22;730;48.870;12.542;2023-10-13T17:14:45;24.20;1.00